Time;durP1;ratioP1;P1;durP2;ratioP2;P2;SDS_P1;SDS_P2;PMS_P1;PMS_P2;Temp;Humidity;BMP_temperature;BMP_pressure;BME280_temperature;BME280_humidity;BME280_pressure;Samples;Min_cycle;Max_cycle;Signal;HPM_P1;HPM_P2
2022/08/15 00:01:57;;;;;;;;;;;;;;;;;;4876269;29;19931;-69
2022/08/15 00:04:25;;;;;;;;;;;;;;;;;;4879700;29;19959;-69
2022/08/15 00:07:00;;;;;;;;;;;;;;;;;;4883516;29;19931;-68
2022/08/15 00:09:28;;;;;;;;;;;;;;;;;;4882440;29;20744;-69
2022/08/15 00:12:17;;;;;;;;;;;;;;;;;;4886671;29;19943;-68
2022/08/15 00:15:00;;;;;;;;;;;;;;;;;;4863759;29;19935;-69
2022/08/15 00:17:29;;;;;;;;;;;;;;;;;;4888876;29;19931;-69
2022/08/15 00:19:57;;;;;;;;;;;;;;;;;;4884501;29;20376;-68
2022/08/15 00:22:24;;;;;;;;;;;;;;;;;;4888111;29;19928;-69
2022/08/15 00:24:51;;;;;;;;;;;;;;;;;;4886756;29;19936;-69
2022/08/15 00:27:19;;;;;;;;;;;;;;;;;;4886956;29;19934;-69
2022/08/15 00:29:51;;;;;;;;;;;;;;;;;;4887580;29;19936;-69
2022/08/15 00:32:19;;;;;;;;;;;;;;;;;;4888088;29;20344;-69
2022/08/15 00:35:35;;;;;;;;;;;;;;;;;;4886956;29;20287;-69
2022/08/15 00:37:55;;;;;;;;;;;;;;;;;;4889201;29;20267;-69
2022/08/15 00:43:25;;;;;;;;;;;;;;;;;;4889847;29;20017;-69
2022/08/15 00:45:56;;;;;;;;;;;;;;;;;;4888127;29;20384;-69
2022/08/15 00:48:42;;;;;;;;;;;;;;;;;;4888924;29;19931;-69
2022/08/15 00:51:11;;;;;;;;;;;;;;;;;;4890089;29;19983;-69
2022/08/15 00:53:39;;;;;;;;;;;;;;;;;;4890011;29;19935;-69
2022/08/15 00:56:06;;;;;;;;;;;;;;;;;;4888503;29;20443;-69
2022/08/15 00:58:33;;;;;;;;;;;;;;;;;;4888275;29;19931;-70
2022/08/15 01:01:04;;;;;;;;;;;;;;;;;;4889950;29;20269;-69
2022/08/15 01:03:32;;;;;;;;;;;;;;;;;;4888691;29;19928;-69
2022/08/15 01:06:00;;;;;;;;;;;;;;;;;;4888755;29;19959;-69
2022/08/15 01:08:28;;;;;;;;;;;;;;;;;;4887954;29;20288;-69
2022/08/15 01:11:02;;;;;;;;;;;;;;;;;;4890401;29;19963;-69
2022/08/15 01:13:31;;;;;;;;;;;;;;;;;;4889703;29;19934;-69
2022/08/15 01:16:21;;;;;;;;;;;;;;;;;;4888667;29;21405;-69
2022/08/15 01:19:01;;;;;;;;;;;;;;;;;;4888967;29;20392;-69
2022/08/15 01:21:30;;;;;;;;;;;;;;;;;;4891170;29;19928;-69
2022/08/15 01:23:57;;;;;;;;;;;;;;;;;;4890748;29;20029;-69
2022/08/15 01:26:25;;;;;;;;;;;;;;;;;;4890687;29;19927;-69
2022/08/15 01:29:07;;;;;;;;;;;;;;;;;;4890691;29;20710;-69
2022/08/15 01:31:36;;;;;;;;;;;;;;;;;;4889625;29;19927;-69
2022/08/15 01:34:04;;;;;;;;;;;;;;;;;;4889484;29;19931;-69
2022/08/15 01:36:39;;;;;;;;;;;;;;;;;;4886883;29;20115;-69
2022/08/15 01:39:06;;;;;;;;;;;;;;;;;;4885803;29;19931;-69
2022/08/15 01:41:35;;;;;;;;;;;;;;;;;;4889989;29;19971;-70
2022/08/15 01:44:03;;;;;;;;;;;;;;;;;;4887050;29;19931;-69
2022/08/15 01:46:50;;;;;;;;;;;;;;;;;;4886924;29;19932;-69
2022/08/15 01:49:18;;;;;;;;;;;;;;;;;;4888193;29;19999;-69
2022/08/15 01:51:45;;;;;;;;;;;;;;;;;;4888060;29;19927;-69
2022/08/15 01:54:12;;;;;;;;;;;;;;;;;;4891989;23;19932;-83
2022/08/15 01:56:42;;;;;;;;;;;;;;;;;;4888578;29;20055;-85
2022/08/15 01:59:12;;;;;;;;;;;;;;;;;;4874595;29;19927;-84
2022/08/15 02:01:40;;;;;;;;;;;;;;;;;;4886337;29;19928;-85
2022/08/15 02:04:08;;;;;;;;;;;;;;;;;;4886432;29;19932;-82
2022/08/15 02:06:35;;;;;;;;;;;;;;;;;;4893712;29;19939;-83
2022/08/15 02:09:09;;;;;;;;;;;;;;;;;;4903714;29;20315;-83
2022/08/15 02:11:46;;;;;;;;;;;;;;;;;;4890810;29;20015;-83
2022/08/15 02:14:27;;;;;;;;;;;;;;;;;;4874726;29;19980;-86
2022/08/15 02:17:04;;;;;;;;;;;;;;;;;;4882030;29;20311;-83
2022/08/15 02:19:33;;;;;;;;;;;;;;;;;;4892652;29;19931;-83
2022/08/15 02:22:08;;;;;;;;;;;;;;;;;;4891549;29;19931;-83
2022/08/15 02:24:35;;;;;;;;;;;;;;;;;;4874850;29;19928;-83
2022/08/15 02:27:02;;;;;;;;;;;;;;;;;;4876485;29;19994;-83
2022/08/15 02:29:29;;;;;;;;;;;;;;;;;;4891150;29;19936;-85
2022/08/15 02:31:57;;;;;;;;;;;;;;;;;;4876092;29;19928;-83
2022/08/15 02:34:24;;;;;;;;;;;;;;;;;;4878900;29;19938;-85
2022/08/15 02:37:11;;;;;;;;;;;;;;;;;;4895347;29;20015;-83
2022/08/15 02:39:40;;;;;;;;;;;;;;;;;;4900162;29;19932;-83
2022/08/15 02:42:08;;;;;;;;;;;;;;;;;;4880919;29;19931;-83
2022/08/15 02:44:35;;;;;;;;;;;;;;;;;;4884982;29;20304;-83
2022/08/15 02:47:07;;;;;;;;;;;;;;;;;;4899823;29;19932;-83
2022/08/15 02:49:38;;;;;;;;;;;;;;;;;;4893307;29;19932;-83
2022/08/15 02:52:15;;;;;;;;;;;;;;;;;;4881232;29;20026;-83
2022/08/15 02:54:47;;;;;;;;;;;;;;;;;;4889478;29;20042;-83
2022/08/15 02:57:26;;;;;;;;;;;;;;;;;;4878366;29;20437;-83
2022/08/15 02:59:54;;;;;;;;;;;;;;;;;;4895124;29;19934;-84
2022/08/15 03:02:27;;;;;;;;;;;;;;;;;;4882304;29;19938;-83
2022/08/15 03:04:57;;;;;;;;;;;;;;;;;;4903325;29;20420;-83
2022/08/15 03:07:24;;;;;;;;;;;;;;;;;;4883518;29;19927;-83
2022/08/15 03:09:51;;;;;;;;;;;;;;;;;;4896337;29;19931;-83
2022/08/15 03:12:23;;;;;;;;;;;;;;;;;;4897367;29;19931;-84
2022/08/15 03:14:58;;;;;;;;;;;;;;;;;;4897512;29;19946;-84
2022/08/15 03:17:28;;;;;;;;;;;;;;;;;;4912769;29;19931;-83
2022/08/15 03:19:55;;;;;;;;;;;;;;;;;;4886327;29;19974;-84
2022/08/15 03:22:26;;;;;;;;;;;;;;;;;;4878562;29;19983;-83
2022/08/15 03:25:12;;;;;;;;;;;;;;;;;;4894203;29;19932;-83
2022/08/15 03:27:40;;;;;;;;;;;;;;;;;;4876902;29;19942;-85
2022/08/15 03:30:09;;;;;;;;;;;;;;;;;;4893840;29;19931;-83
2022/08/15 03:32:45;;;;;;;;;;;;;;;;;;4894482;29;20392;-82
2022/08/15 03:35:13;;;;;;;;;;;;;;;;;;4898931;29;20156;-83
2022/08/15 03:37:40;;;;;;;;;;;;;;;;;;4904131;29;19967;-85
2022/08/15 03:40:10;;;;;;;;;;;;;;;;;;4893753;29;19928;-83
2022/08/15 03:42:38;;;;;;;;;;;;;;;;;;4894884;29;19970;-83
2022/08/15 03:45:05;;;;;;;;;;;;;;;;;;4894686;29;19931;-83
2022/08/15 03:47:33;;;;;;;;;;;;;;;;;;4894236;29;20415;-83
2022/08/15 03:50:01;;;;;;;;;;;;;;;;;;4893873;29;20387;-83
2022/08/15 03:52:48;;;;;;;;;;;;;;;;;;4899525;29;19987;-85
2022/08/15 03:55:16;;;;;;;;;;;;;;;;;;4904704;29;19956;-84
2022/08/15 03:57:45;;;;;;;;;;;;;;;;;;4864829;29;19939;-84
2022/08/15 04:00:29;;;;;;;;;;;;;;;;;;4894160;29;19963;-83
2022/08/15 04:02:57;;;;;;;;;;;;;;;;;;4878155;29;19932;-83
2022/08/15 04:05:25;;;;;;;;;;;;;;;;;;4882338;29;20312;-83
2022/08/15 04:07:52;;;;;;;;;;;;;;;;;;4883273;29;19932;-83
2022/08/15 04:10:23;;;;;;;;;;;;;;;;;;4885006;29;20659;-83
2022/08/15 04:13:06;;;;;;;;;;;;;;;;;;4885076;29;19927;-85
2022/08/15 04:15:34;;;;;;;;;;;;;;;;;;4892262;29;19939;-83
2022/08/15 04:18:01;;;;;;;;;;;;;;;;;;4877044;29;20312;-85
2022/08/15 04:20:49;;;;;;;;;;;;;;;;;;4893262;29;19928;-83
2022/08/15 04:23:18;;;;;;;;;;;;;;;;;;4892343;29;19932;-83
2022/08/15 04:25:45;;;;;;;;;;;;;;;;;;4877135;29;19928;-83
2022/08/15 04:28:22;;;;;;;;;;;;;;;;;;4893731;29;20503;-83
2022/08/15 04:30:55;;;;;;;;;;;;;;;;;;4878147;29;19932;-83
2022/08/15 04:33:22;;;;;;;;;;;;;;;;;;4867168;29;20312;-85
2022/08/15 04:36:10;;;;;;;;;;;;;;;;;;4895601;29;20393;-83
2022/08/15 04:38:39;;;;;;;;;;;;;;;;;;4875725;29;19941;-83
2022/08/15 04:41:07;;;;;;;;;;;;;;;;;;4892742;29;20047;-83
2022/08/15 04:43:45;;;;;;;;;;;;;;;;;;4884579;29;20010;-83
2022/08/15 04:46:18;;;;;;;;;;;;;;;;;;4884195;29;19928;-83
2022/08/15 04:48:52;;;;;;;;;;;;;;;;;;4898665;29;19975;-83
2022/08/15 04:51:20;;;;;;;;;;;;;;;;;;4885918;29;20423;-83
2022/08/15 04:53:47;;;;;;;;;;;;;;;;;;4896844;29;19932;-85
2022/08/15 04:56:20;;;;;;;;;;;;;;;;;;4877664;29;20718;-83
2022/08/15 04:59:08;;;;;;;;;;;;;;;;;;4891760;29;19936;-86
2022/08/15 05:01:56;;;;;;;;;;;;;;;;;;4896020;29;19939;-83
2022/08/15 05:04:44;;;;;;;;;;;;;;;;;;4898151;29;20285;-83
2022/08/15 05:07:11;;;;;;;;;;;;;;;;;;4887369;29;19935;-83
2022/08/15 05:09:43;;;;;;;;;;;;;;;;;;4893329;29;20463;-83
2022/08/15 05:12:25;;;;;;;;;;;;;;;;;;4867543;29;19927;-83
2022/08/15 05:14:53;;;;;;;;;;;;;;;;;;4896897;29;19932;-84
2022/08/15 05:17:22;;;;;;;;;;;;;;;;;;4876959;29;19991;-85
2022/08/15 05:19:50;;;;;;;;;;;;;;;;;;4901902;29;19934;-83
2022/08/15 05:22:17;;;;;;;;;;;;;;;;;;4886465;29;20421;-84
2022/08/15 05:24:44;;;;;;;;;;;;;;;;;;4878247;29;19928;-83
2022/08/15 05:27:11;;;;;;;;;;;;;;;;;;4879299;29;20030;-83
2022/08/15 05:29:40;;;;;;;;;;;;;;;;;;4874609;29;19938;-83
2022/08/15 05:32:07;;;;;;;;;;;;;;;;;;4894628;23;19931;-72
2022/08/15 05:34:39;;;;;;;;;;;;;;;;;;4891001;29;20177;-73
2022/08/15 05:37:11;;;;;;;;;;;;;;;;;;4879786;29;19928;-73
2022/08/15 05:39:38;;;;;;;;;;;;;;;;;;4879837;29;19932;-73
2022/08/15 05:42:10;;;;;;;;;;;;;;;;;;4888489;29;19983;-73
2022/08/15 05:44:38;;;;;;;;;;;;;;;;;;4873189;29;19935;-73
2022/08/15 05:47:14;;;;;;;;;;;;;;;;;;4903837;29;20388;-74
2022/08/15 05:49:41;;;;;;;;;;;;;;;;;;4888231;29;19935;-73
2022/08/15 05:52:12;;;;;;;;;;;;;;;;;;4897051;29;20080;-73
2022/08/15 05:54:46;;;;;;;;;;;;;;;;;;4888488;29;19958;-73
2022/08/15 05:57:14;;;;;;;;;;;;;;;;;;4886969;29;19927;-73
2022/08/15 05:59:41;;;;;;;;;;;;;;;;;;4887939;29;19928;-73
2022/08/15 06:02:11;;;;;;;;;;;;;;;;;;4888520;29;19936;-73
2022/08/15 06:04:58;;;;;;;;;;;;;;;;;;4872259;29;19931;-73
2022/08/15 06:07:25;;;;;;;;;;;;;;;;;;4889188;29;20311;-73
2022/08/15 06:10:13;;;;;;;;;;;;;;;;;;4889842;29;19938;-74
2022/08/15 06:13:01;;;;;;;;;;;;;;;;;;4888173;29;20335;-74
2022/08/15 06:15:29;;;;;;;;;;;;;;;;;;4887907;29;20277;-73
2022/08/15 06:18:00;;;;;;;;;;;;;;;;;;4887927;29;20226;-72
2022/08/15 06:20:27;;;;;;;;;;;;;;;;;;4888090;29;20022;-72
2022/08/15 06:23:10;;;;;;;;;;;;;;;;;;4903553;29;20351;-73
2022/08/15 06:25:38;;;;;;;;;;;;;;;;;;4888110;29;20406;-73
2022/08/15 06:28:06;;;;;;;;;;;;;;;;;;4888954;29;20369;-73
2022/08/15 06:30:53;;;;;;;;;;;;;;;;;;4903145;29;19942;-72
2022/08/15 06:33:21;;;;;;;;;;;;;;;;;;4903640;29;19935;-73
2022/08/15 06:35:48;;;;;;;;;;;;;;;;;;4887518;29;20038;-73
2022/08/15 06:38:23;;;;;;;;;;;;;;;;;;4888560;29;19958;-72
2022/08/15 06:41:06;;;;;;;;;;;;;;;;;;4904203;29;19954;-72
2022/08/15 06:43:34;;;;;;;;;;;;;;;;;;4892256;29;19931;-73
2022/08/15 06:46:15;;;;;;;;;;;;;;;;;;4877744;29;20000;-73
2022/08/15 06:49:03;;;;;;;;;;;;;;;;;;4891045;29;20403;-73
2022/08/15 06:51:33;;;;;;;;;;;;;;;;;;4873678;29;19931;-72
2022/08/15 06:54:12;;;;;;;;;;;;;;;;;;4891400;29;19935;-73
2022/08/15 06:57:00;;;;;;;;;;;;;;;;;;4906635;29;20132;-72
2022/08/15 06:59:29;;;;;;;;;;;;;;;;;;4889295;29;20383;-72
2022/08/15 07:02:03;;;;;;;;;;;;;;;;;;4904890;29;20303;-72
2022/08/15 07:04:43;;;;;;;;;;;;;;;;;;4877695;29;20393;-73
2022/08/15 07:07:11;;;;;;;;;;;;;;;;;;4896991;29;19935;-73
2022/08/15 07:09:39;;;;;;;;;;;;;;;;;;4921846;29;20050;-73
2022/08/15 07:12:07;;;;;;;;;;;;;;;;;;4891213;29;19966;-73
2022/08/15 07:14:34;;;;;;;;;;;;;;;;;;4886527;29;19954;-73
2022/08/15 07:17:02;;;;;;;;;;;;;;;;;;4887787;29;20204;-73
2022/08/15 07:19:31;;;;;;;;;;;;;;;;;;4903056;29;20355;-74
2022/08/15 07:22:13;;;;;;;;;;;;;;;;;;4882882;29;19931;-73
2022/08/15 07:24:41;;;;;;;;;;;;;;;;;;4890358;29;19933;-73
2022/08/15 07:27:12;;;;;;;;;;;;;;;;;;4886383;29;19958;-72
2022/08/15 07:29:42;;;;;;;;;;;;;;;;;;4912918;29;19931;-74
2022/08/15 07:32:11;;;;;;;;;;;;;;;;;;4907334;29;20721;-73
2022/08/15 07:34:44;;;;;;;;;;;;;;;;;;4903036;29;19931;-72
2022/08/15 07:37:12;;;;;;;;;;;;;;;;;;4889783;29;20586;-73
2022/08/15 07:39:39;;;;;;;;;;;;;;;;;;4894271;29;20460;-73
2022/08/15 07:42:13;;;;;;;;;;;;;;;;;;4903771;29;19931;-72
2022/08/15 07:44:57;;;;;;;;;;;;;;;;;;4897752;29;19931;-73
2022/08/15 07:47:24;;;;;;;;;;;;;;;;;;4908413;29;20312;-72
2022/08/15 07:49:51;;;;;;;;;;;;;;;;;;4893673;29;20550;-73
2022/08/15 07:52:23;;;;;;;;;;;;;;;;;;4896622;29;19995;-73
2022/08/15 07:55:11;;;;;;;;;;;;;;;;;;4892799;29;19935;-71
2022/08/15 07:57:58;;;;;;;;;;;;;;;;;;4896620;29;20099;-72
2022/08/15 08:00:26;;;;;;;;;;;;;;;;;;4912523;29;19942;-73
2022/08/15 08:03:04;;;;;;;;;;;;;;;;;;4927440;29;19927;-72
2022/08/15 08:05:35;;;;;;;;;;;;;;;;;;4933358;29;20109;-73
2022/08/15 08:08:14;;;;;;;;;;;;;;;;;;4916311;29;19946;-73
2022/08/15 08:11:01;;;;;;;;;;;;;;;;;;4898460;29;20049;-72
2022/08/15 08:13:28;;;;;;;;;;;;;;;;;;4878366;29;19968;-73
2022/08/15 08:16:03;;;;;;;;;;;;;;;;;;4876579;29;19971;-72
2022/08/15 08:18:35;;;;;;;;;;;;;;;;;;4916818;29;20029;-73
2022/08/15 08:21:03;;;;;;;;;;;;;;;;;;4908233;29;19938;-73
2022/08/15 08:23:42;;;;;;;;;;;;;;;;;;4926154;29;19931;-73
2022/08/15 08:26:10;;;;;;;;;;;;;;;;;;4912416;29;20419;-72
2022/08/15 08:28:44;;;;;;;;;;;;;;;;;;4910737;29;19927;-73
2022/08/15 08:31:11;;;;;;;;;;;;;;;;;;4893952;29;19935;-73
2022/08/15 08:33:39;;;;;;;;;;;;;;;;;;4903618;29;20038;-73
2022/08/15 08:36:09;;;;;;;;;;;;;;;;;;4890089;29;19939;-72
2022/08/15 08:38:57;;;;;;;;;;;;;;;;;;4884892;29;20284;-71
2022/08/15 08:41:35;;;;;;;;;;;;;;;;;;4888272;29;20107;-73
2022/08/15 08:44:12;;;;;;;;;;;;;;;;;;4891370;29;20380;-72
2022/08/15 08:46:44;;;;;;;;;;;;;;;;;;4901109;29;19927;-72
2022/08/15 08:49:12;;;;;;;;;;;;;;;;;;4902145;29;19931;-72
2022/08/15 08:51:43;;;;;;;;;;;;;;;;;;4909655;29;20065;-72
2022/08/15 08:54:10;;;;;;;;;;;;;;;;;;4901396;29;19935;-71
2022/08/15 08:56:44;;;;;;;;;;;;;;;;;;4894461;29;20034;-72
2022/08/15 08:59:11;;;;;;;;;;;;;;;;;;4900352;29;19935;-72
2022/08/15 09:01:38;;;;;;;;;;;;;;;;;;4909593;29;19931;-72
2022/08/15 09:04:06;;;;;;;;;;;;;;;;;;4908091;29;20411;-72
2022/08/15 09:06:33;;;;;;;;;;;;;;;;;;4897765;29;19931;-72
2022/08/15 09:09:00;;;;;;;;;;;;;;;;;;4910463;29;19934;-71
2022/08/15 09:11:27;;;;;;;;;;;;;;;;;;4910897;29;20290;-72
2022/08/15 09:13:55;;;;;;;;;;;;;;;;;;4910625;29;19927;-72
2022/08/15 09:16:23;;;;;;;;;;;;;;;;;;4909110;29;19931;-72
2022/08/15 09:18:54;;;;;;;;;;;;;;;;;;4905728;29;19931;-72
2022/08/15 09:21:21;;;;;;;;;;;;;;;;;;4893146;29;19942;-72
2022/08/15 09:23:50;;;;;;;;;;;;;;;;;;4890248;29;19943;-72
2022/08/15 09:26:17;;;;;;;;;;;;;;;;;;4902775;29;20271;-72
2022/08/15 09:28:46;;;;;;;;;;;;;;;;;;4908193;29;20288;-72
2022/08/15 09:31:13;;;;;;;;;;;;;;;;;;4908446;29;19938;-71
2022/08/15 09:33:40;;;;;;;;;;;;;;;;;;4908706;29;19927;-72
2022/08/15 09:36:07;;;;;;;;;;;;;;;;;;4899242;29;19931;-72
2022/08/15 09:38:36;;;;;;;;;;;;;;;;;;4896204;29;19982;-71
2022/08/15 09:41:04;;;;;;;;;;;;;;;;;;4891476;29;19934;-72
2022/08/15 09:43:41;;;;;;;;;;;;;;;;;;4897319;29;20357;-72
2022/08/15 09:46:10;;;;;;;;;;;;;;;;;;4905290;29;20022;-72
2022/08/15 09:48:57;;;;;;;;;;;;;;;;;;4890420;29;19931;-71
2022/08/15 09:51:25;;;;;;;;;;;;;;;;;;4884355;29;20334;-73
2022/08/15 09:53:53;;;;;;;;;;;;;;;;;;4889966;29;19934;-72
2022/08/15 09:56:28;;;;;;;;;;;;;;;;;;4889483;29;19931;-73
2022/08/15 09:58:57;;;;;;;;;;;;;;;;;;4901414;29;20250;-73
2022/08/15 10:01:24;;;;;;;;;;;;;;;;;;4889432;29;20494;-73
2022/08/15 10:03:51;;;;;;;;;;;;;;;;;;4889021;29;19983;-73
2022/08/15 10:06:19;;;;;;;;;;;;;;;;;;4885798;29;20348;-73
2022/08/15 10:09:01;;;;;;;;;;;;;;;;;;4888973;29;19931;-72
2022/08/15 10:11:33;;;;;;;;;;;;;;;;;;4883127;29;20272;-73
2022/08/15 10:14:06;;;;;;;;;;;;;;;;;;4902489;29;19938;-72
2022/08/15 10:16:40;;;;;;;;;;;;;;;;;;4909109;29;19927;-72
2022/08/15 10:19:09;;;;;;;;;;;;;;;;;;4926520;29;20396;-72
2022/08/15 10:21:37;;;;;;;;;;;;;;;;;;4911937;29;19931;-73
2022/08/15 10:24:09;;;;;;;;;;;;;;;;;;4911688;29;20395;-73
2022/08/15 10:26:54;;;;;;;;;;;;;;;;;;4905542;29;19977;-73
2022/08/15 10:29:24;;;;;;;;;;;;;;;;;;4910225;29;20157;-73
2022/08/15 10:31:52;;;;;;;;;;;;;;;;;;4910165;29;20395;-73
2022/08/15 10:34:22;;;;;;;;;;;;;;;;;;4899739;29;19942;-72
2022/08/15 10:36:50;;;;;;;;;;;;;;;;;;4895738;29;19981;-72
2022/08/15 10:39:17;;;;;;;;;;;;;;;;;;4910435;29;19979;-73
2022/08/15 10:41:46;;;;;;;;;;;;;;;;;;4909054;29;19935;-72
2022/08/15 10:44:13;;;;;;;;;;;;;;;;;;4901098;29;19966;-72
2022/08/15 10:47:01;;;;;;;;;;;;;;;;;;4895437;29;19931;-73
2022/08/15 10:49:28;;;;;;;;;;;;;;;;;;4888962;29;19938;-72
2022/08/15 10:51:55;;;;;;;;;;;;;;;;;;4889115;29;20034;-73
2022/08/15 10:54:22;;;;;;;;;;;;;;;;;;4892441;29;19935;-73
2022/08/15 10:56:51;;;;;;;;;;;;;;;;;;4884252;29;19940;-73
2022/08/15 10:59:33;;;;;;;;;;;;;;;;;;4890443;29;19991;-72
2022/08/15 11:02:00;;;;;;;;;;;;;;;;;;4893061;29;19931;-73
2022/08/15 11:04:29;;;;;;;;;;;;;;;;;;4891512;29;19938;-72
2022/08/15 11:07:16;;;;;;;;;;;;;;;;;;4919497;29;19987;-72
2022/08/15 11:09:43;;;;;;;;;;;;;;;;;;4893670;29;20308;-72
2022/08/15 11:12:14;;;;;;;;;;;;;;;;;;4892618;29;20023;-73
2022/08/15 11:14:43;;;;;;;;;;;;;;;;;;4893966;29;20034;-71
2022/08/15 11:17:10;;;;;;;;;;;;;;;;;;4893540;29;19931;-72
2022/08/15 11:19:38;;;;;;;;;;;;;;;;;;4893844;29;20411;-72
2022/08/15 11:22:25;;;;;;;;;;;;;;;;;;4894186;29;20038;-73
2022/08/15 11:24:53;;;;;;;;;;;;;;;;;;4893669;29;20030;-72
2022/08/15 11:27:21;;;;;;;;;;;;;;;;;;4893409;29;19958;-72
2022/08/15 11:29:51;;;;;;;;;;;;;;;;;;4893252;29;19931;-73
2022/08/15 11:32:19;;;;;;;;;;;;;;;;;;4892929;29;19939;-72
2022/08/15 11:34:51;;;;;;;;;;;;;;;;;;4891474;29;19932;-73
2022/08/15 11:37:18;;;;;;;;;;;;;;;;;;4899942;29;19937;-73
2022/08/15 11:39:45;;;;;;;;;;;;;;;;;;4912395;29;20076;-73
2022/08/15 11:42:12;;;;;;;;;;;;;;;;;;4912255;29;19994;-73
2022/08/15 11:44:40;;;;;;;;;;;;;;;;;;4896714;29;20022;-73
2022/08/15 11:47:07;;;;;;;;;;;;;;;;;;4893172;29;19934;-73
2022/08/15 11:49:34;;;;;;;;;;;;;;;;;;4893039;29;19931;-73
2022/08/15 11:52:02;;;;;;;;;;;;;;;;;;4892052;29;20042;-74
2022/08/15 11:54:49;;;;;;;;;;;;;;;;;;4890934;29;19928;-73
2022/08/15 11:57:16;;;;;;;;;;;;;;;;;;4888460;29;19954;-73
2022/08/15 12:00:03;;;;;;;;;;;;;;;;;;4895934;29;20315;-73
2022/08/15 12:02:34;;;;;;;;;;;;;;;;;;4887821;29;20372;-73
2022/08/15 12:05:02;;;;;;;;;;;;;;;;;;4886528;29;19927;-73
2022/08/15 12:07:49;;;;;;;;;;;;;;;;;;4885256;29;19935;-74
2022/08/15 12:10:16;;;;;;;;;;;;;;;;;;4890473;29;19938;-74
2022/08/15 12:12:56;;;;;;;;;;;;;;;;;;4891881;29;19934;-71
2022/08/15 12:15:24;;;;;;;;;;;;;;;;;;4891571;29;19932;-72
2022/08/15 12:17:53;;;;;;;;;;;;;;;;;;4880254;29;20009;-71
2022/08/15 12:20:24;;;;;;;;;;;;;;;;;;4886764;29;20034;-72
2022/08/15 12:22:55;;;;;;;;;;;;;;;;;;4889898;29;19934;-72
2022/08/15 12:25:26;;;;;;;;;;;;;;;;;;4891936;29;19946;-72
2022/08/15 12:28:13;;;;;;;;;;;;;;;;;;4892073;29;19961;-72
2022/08/15 12:30:59;;;;;;;;;;;;;;;;;;4887112;29;19928;-72
2022/08/15 12:33:26;;;;;;;;;;;;;;;;;;4889071;29;19955;-72
2022/08/15 12:35:54;;;;;;;;;;;;;;;;;;4890296;29;20529;-72
2022/08/15 12:38:27;;;;;;;;;;;;;;;;;;4907728;29;20025;-72
2022/08/15 12:40:55;;;;;;;;;;;;;;;;;;4911327;29;19982;-72
2022/08/15 12:43:42;;;;;;;;;;;;;;;;;;4911159;29;19931;-72
2022/08/15 12:46:10;;;;;;;;;;;;;;;;;;4896469;29;20032;-71
2022/08/15 12:48:39;;;;;;;;;;;;;;;;;;4882005;29;19955;-71
2022/08/15 12:51:09;;;;;;;;;;;;;;;;;;4886177;29;20455;-72
2022/08/15 12:53:39;;;;;;;;;;;;;;;;;;4891434;29;20021;-72
2022/08/15 12:56:09;;;;;;;;;;;;;;;;;;4884371;29;20018;-73
2022/08/15 12:58:57;;;;;;;;;;;;;;;;;;4880088;29;20396;-72
2022/08/15 13:01:28;;;;;;;;;;;;;;;;;;4883772;29;19931;-72
2022/08/15 13:03:58;;;;;;;;;;;;;;;;;;4886022;29;19931;-72
2022/08/15 13:06:33;;;;;;;;;;;;;;;;;;4888560;29;19979;-72
2022/08/15 13:09:01;;;;;;;;;;;;;;;;;;4886670;29;19935;-72
2022/08/15 13:11:31;;;;;;;;;;;;;;;;;;4882090;29;19931;-72
2022/08/15 13:13:58;;;;;;;;;;;;;;;;;;4887749;29;19937;-73
2022/08/15 13:16:25;;;;;;;;;;;;;;;;;;4890129;29;19932;-73
2022/08/15 13:19:13;;;;;;;;;;;;;;;;;;4890636;29;20021;-72
2022/08/15 13:24:29;;;;;;;;;;;;;;;;;;4883540;29;19951;-72
2022/08/15 13:26:56;;;;;;;;;;;;;;;;;;4886791;29;19935;-72
2022/08/15 13:29:23;;;;;;;;;;;;;;;;;;4886397;29;19935;-72
2022/08/15 13:31:50;;;;;;;;;;;;;;;;;;4901440;29;20397;-72
2022/08/15 13:34:19;;;;;;;;;;;;;;;;;;4876537;29;19960;-72
2022/08/15 13:36:47;;;;;;;;;;;;;;;;;;4885913;29;19931;-71
2022/08/15 13:39:21;;;;;;;;;;;;;;;;;;4903305;29;19950;-72
2022/08/15 13:41:55;;;;;;;;;;;;;;;;;;4906099;29;19927;-72
2022/08/15 13:44:33;;;;;;;;;;;;;;;;;;4908796;29;19934;-72
2022/08/15 13:47:01;;;;;;;;;;;;;;;;;;4902053;29;19938;-72
2022/08/15 13:49:29;;;;;;;;;;;;;;;;;;4904840;29;19978;-72
2022/08/15 13:51:58;;;;;;;;;;;;;;;;;;4910748;29;20234;-72
2022/08/15 13:54:45;;;;;;;;;;;;;;;;;;4914248;29;19931;-73
2022/08/15 13:57:15;;;;;;;;;;;;;;;;;;4914573;29;20027;-72
2022/08/15 13:59:43;;;;;;;;;;;;;;;;;;4915768;29;20091;-73
2022/08/15 14:02:10;;;;;;;;;;;;;;;;;;4912313;29;19979;-74
2022/08/15 14:04:57;;;;;;;;;;;;;;;;;;4905736;29;19931;-72
2022/08/15 14:07:27;;;;;;;;;;;;;;;;;;4888091;29;19955;-71
2022/08/15 14:10:16;;;;;;;;;;;;;;;;;;4888725;29;19970;-71
2022/08/15 14:13:03;;;;;;;;;;;;;;;;;;4889546;29;19936;-72
2022/08/15 14:15:40;;;;;;;;;;;;;;;;;;4889902;29;19932;-72
2022/08/15 14:18:27;;;;;;;;;;;;;;;;;;4886131;29;19928;-71
2022/08/15 14:21:15;;;;;;;;;;;;;;;;;;4888106;29;19931;-72
2022/08/15 14:23:45;;;;;;;;;;;;;;;;;;4906008;29;20314;-72
2022/08/15 14:26:20;;;;;;;;;;;;;;;;;;4908767;29;20406;-72
2022/08/15 14:29:08;;;;;;;;;;;;;;;;;;4909116;29;19938;-72
2022/08/15 14:31:35;;;;;;;;;;;;;;;;;;4903706;29;19995;-72
2022/08/15 14:34:03;;;;;;;;;;;;;;;;;;4908523;29;19931;-72
2022/08/15 14:36:50;;;;;;;;;;;;;;;;;;4888787;29;19927;-72
2022/08/15 14:39:17;;;;;;;;;;;;;;;;;;4894135;29;19939;-73
2022/08/15 14:41:45;;;;;;;;;;;;;;;;;;4901839;29;19935;-72
2022/08/15 14:44:15;;;;;;;;;;;;;;;;;;4905098;29;19935;-72
2022/08/15 14:47:02;;;;;;;;;;;;;;;;;;4897947;29;19950;-72
2022/08/15 14:49:30;;;;;;;;;;;;;;;;;;4907411;29;19938;-72
2022/08/15 14:52:18;;;;;;;;;;;;;;;;;;4908894;29;19953;-71
2022/08/15 14:54:52;;;;;;;;;;;;;;;;;;4900408;29;19932;-72
2022/08/15 14:57:22;;;;;;;;;;;;;;;;;;4907639;29;20207;-71
2022/08/15 14:59:52;;;;;;;;;;;;;;;;;;4904107;29;19931;-71
2022/08/15 15:02:25;;;;;;;;;;;;;;;;;;4887418;29;20310;-71
2022/08/15 15:04:54;;;;;;;;;;;;;;;;;;4893178;29;20335;-72
2022/08/15 15:07:22;;;;;;;;;;;;;;;;;;4903307;29;20193;-72
2022/08/15 15:09:49;;;;;;;;;;;;;;;;;;4891639;29;20018;-72
2022/08/15 15:12:19;;;;;;;;;;;;;;;;;;4892844;29;20409;-72
2022/08/15 15:14:47;;;;;;;;;;;;;;;;;;4897842;29;19927;-72
2022/08/15 15:17:14;;;;;;;;;;;;;;;;;;4894870;29;20495;-72
2022/08/15 15:19:42;;;;;;;;;;;;;;;;;;4879662;29;19938;-73
2022/08/15 15:22:09;;;;;;;;;;;;;;;;;;4891620;29;20307;-72
2022/08/15 15:24:43;;;;;;;;;;;;;;;;;;4915586;29;19954;-72
2022/08/15 15:27:14;;;;;;;;;;;;;;;;;;4908161;29;19994;-72
2022/08/15 15:29:43;;;;;;;;;;;;;;;;;;4898161;29;19931;-72
2022/08/15 15:32:12;;;;;;;;;;;;;;;;;;4898366;29;19931;-72
2022/08/15 15:34:56;;;;;;;;;;;;;;;;;;4888481;29;20053;-72
2022/08/15 15:37:24;;;;;;;;;;;;;;;;;;4897491;29;19931;-72
2022/08/15 15:39:51;;;;;;;;;;;;;;;;;;4890083;29;20535;-73
2022/08/15 15:42:19;;;;;;;;;;;;;;;;;;4894084;29;20346;-72
2022/08/15 15:44:47;;;;;;;;;;;;;;;;;;4878718;29;20014;-72
2022/08/15 15:47:15;;;;;;;;;;;;;;;;;;4914129;29;19936;-72
2022/08/15 15:49:51;;;;;;;;;;;;;;;;;;4895261;29;19931;-72
2022/08/15 15:52:19;;;;;;;;;;;;;;;;;;4905053;29;19931;-72
2022/08/15 15:54:47;;;;;;;;;;;;;;;;;;4911715;29;20397;-72
2022/08/15 15:57:20;;;;;;;;;;;;;;;;;;4911745;29;19938;-71
2022/08/15 15:59:47;;;;;;;;;;;;;;;;;;4911977;29;19938;-71
2022/08/15 16:02:29;;;;;;;;;;;;;;;;;;4893559;29;20585;-71
2022/08/15 16:05:11;;;;;;;;;;;;;;;;;;4888506;29;20491;-71
2022/08/15 16:07:39;;;;;;;;;;;;;;;;;;4897559;29;20035;-72
2022/08/15 16:10:21;;;;;;;;;;;;;;;;;;4890854;29;19938;-72
2022/08/15 16:12:49;;;;;;;;;;;;;;;;;;4883770;29;20300;-72
2022/08/15 16:15:25;;;;;;;;;;;;;;;;;;4872845;29;19939;-72
2022/08/15 16:18:10;;;;;;;;;;;;;;;;;;4879533;29;20359;-72
2022/08/15 16:20:50;;;;;;;;;;;;;;;;;;4872836;29;19939;-71
2022/08/15 16:23:18;;;;;;;;;;;;;;;;;;4895961;29;19934;-72
2022/08/15 16:25:45;;;;;;;;;;;;;;;;;;4892205;29;19931;-72
2022/08/15 16:28:13;;;;;;;;;;;;;;;;;;4888526;29;20422;-72
2022/08/15 16:30:41;;;;;;;;;;;;;;;;;;4886073;29;20379;-72
2022/08/15 16:33:09;;;;;;;;;;;;;;;;;;4890634;29;19931;-73
2022/08/15 16:35:36;;;;;;;;;;;;;;;;;;4889926;29;19990;-72
2022/08/15 16:38:03;;;;;;;;;;;;;;;;;;4887827;29;19932;-72
2022/08/15 16:40:30;;;;;;;;;;;;;;;;;;4889935;29;19928;-72
2022/08/15 16:43:17;;;;;;;;;;;;;;;;;;4883354;29;19939;-72
2022/08/15 16:45:45;;;;;;;;;;;;;;;;;;4888516;29;20046;-72
2022/08/15 16:48:12;;;;;;;;;;;;;;;;;;4886589;29;19935;-73
2022/08/15 16:50:39;;;;;;;;;;;;;;;;;;4888223;29;19953;-72
2022/08/15 16:53:14;;;;;;;;;;;;;;;;;;4888450;29;20593;-72
2022/08/15 16:55:46;;;;;;;;;;;;;;;;;;4888093;29;20388;-73
2022/08/15 16:58:14;;;;;;;;;;;;;;;;;;4887718;29;20034;-73
2022/08/15 17:01:02;;;;;;;;;;;;;;;;;;4886907;29;20030;-73
2022/08/15 17:03:30;;;;;;;;;;;;;;;;;;4887718;29;19931;-73
2022/08/15 17:06:00;;;;;;;;;;;;;;;;;;4885156;29;20034;-72
2022/08/15 17:08:28;;;;;;;;;;;;;;;;;;4887305;29;19928;-73
2022/08/15 17:10:55;;;;;;;;;;;;;;;;;;4879006;29;19983;-73
2022/08/15 17:13:28;;;;;;;;;;;;;;;;;;4889743;29;20006;-72
2022/08/15 17:15:55;;;;;;;;;;;;;;;;;;4889601;29;19936;-72
2022/08/15 17:18:22;;;;;;;;;;;;;;;;;;4886716;29;19928;-72
2022/08/15 17:20:50;;;;;;;;;;;;;;;;;;4870624;29;20458;-72
2022/08/15 17:23:21;;;;;;;;;;;;;;;;;;4870777;29;19931;-73
2022/08/15 17:25:48;;;;;;;;;;;;;;;;;;4870563;29;19931;-72